sensor_id;sensor_type;location;lat;lon;timestamp;pressure;altitude;pressure_sealevel;temperature;humidity
59493;BME280;45497;43.996;22.876;2023-04-07T00:00:17;100955.41;;;5.59;45.81
59493;BME280;45497;43.996;22.876;2023-04-07T00:02:43;100964.81;;;5.62;45.89
59493;BME280;45497;43.996;22.876;2023-04-07T00:05:08;100971.34;;;5.36;46.77
59493;BME280;45497;43.996;22.876;2023-04-07T00:07:34;100960.94;;;5.04;47.58
59493;BME280;45497;43.996;22.876;2023-04-07T00:09:59;100963.16;;;5.09;47.88
59493;BME280;45497;43.996;22.876;2023-04-07T00:12:25;100960.47;;;4.99;48.09
59493;BME280;45497;43.996;22.876;2023-04-07T00:14:51;100971.03;;;5.09;47.80
59493;BME280;45497;43.996;22.876;2023-04-07T00:17:16;100967.59;;;5.08;47.89
59493;BME280;45497;43.996;22.876;2023-04-07T00:19:41;100961.63;;;5.06;47.41
59493;BME280;45497;43.996;22.876;2023-04-07T00:22:08;100954.81;;;5.04;47.59
59493;BME280;45497;43.996;22.876;2023-04-07T00:24:33;100961.53;;;4.96;47.76
59493;BME280;45497;43.996;22.876;2023-04-07T00:26:59;100957.91;;;5.09;47.06
59493;BME280;45497;43.996;22.876;2023-04-07T00:29:25;100963.28;;;5.07;47.32
59493;BME280;45497;43.996;22.876;2023-04-07T00:31:51;100962.56;;;4.84;47.55
59493;BME280;45497;43.996;22.876;2023-04-07T00:34:16;100967.72;;;5.07;47.61
59493;BME280;45497;43.996;22.876;2023-04-07T00:36:42;100956.53;;;5.14;47.12
59493;BME280;45497;43.996;22.876;2023-04-07T00:39:07;100967.91;;;5.15;47.07
59493;BME280;45497;43.996;22.876;2023-04-07T00:41:34;100964.19;;;5.17;47.06
59493;BME280;45497;43.996;22.876;2023-04-07T00:44:00;100957.78;;;5.10;47.39
59493;BME280;45497;43.996;22.876;2023-04-07T00:46:25;100958.81;;;5.19;47.16
59493;BME280;45497;43.996;22.876;2023-04-07T00:48:51;100963.53;;;5.25;46.93
59493;BME280;45497;43.996;22.876;2023-04-07T00:51:19;100961.69;;;5.37;46.44
59493;BME280;45497;43.996;22.876;2023-04-07T00:53:46;100963.25;;;5.49;46.47
59493;BME280;45497;43.996;22.876;2023-04-07T00:56:11;100949.97;;;5.51;46.30
59493;BME280;45497;43.996;22.876;2023-04-07T00:58:37;100959.09;;;5.47;46.16
59493;BME280;45497;43.996;22.876;2023-04-07T01:01:07;100955.19;;;5.41;46.38
59493;BME280;45497;43.996;22.876;2023-04-07T01:03:38;100954.22;;;5.42;46.49
59493;BME280;45497;43.996;22.876;2023-04-07T01:06:07;100949.25;;;5.49;46.20
59493;BME280;45497;43.996;22.876;2023-04-07T01:13:49;100952.53;;;5.62;45.76
59493;BME280;45497;43.996;22.876;2023-04-07T01:16:27;100941.16;;;5.62;45.53
59493;BME280;45497;43.996;22.876;2023-04-07T01:18:56;100944.63;;;5.62;45.53
59493;BME280;45497;43.996;22.876;2023-04-07T01:21:26;100949.22;;;5.70;45.81
59493;BME280;45497;43.996;22.876;2023-04-07T01:24:19;100950.75;;;5.72;45.23
59493;BME280;45497;43.996;22.876;2023-04-07T01:26:50;100944.50;;;5.64;45.76
59493;BME280;45497;43.996;22.876;2023-04-07T01:29:21;100948.28;;;5.71;45.91
59493;BME280;45497;43.996;22.876;2023-04-07T01:31:50;100942.44;;;5.67;45.49
59493;BME280;45497;43.996;22.876;2023-04-07T01:34:17;100947.03;;;5.75;45.36
59493;BME280;45497;43.996;22.876;2023-04-07T01:36:44;100940.78;;;5.66;45.37
59493;BME280;45497;43.996;22.876;2023-04-07T01:39:12;100940.91;;;5.65;45.21
59493;BME280;45497;43.996;22.876;2023-04-07T01:41:38;100947.28;;;5.72;45.48
59493;BME280;45497;43.996;22.876;2023-04-07T01:44:06;100934.25;;;5.61;45.68
59493;BME280;45497;43.996;22.876;2023-04-07T01:46:32;100943.75;;;5.52;45.90
59493;BME280;45497;43.996;22.876;2023-04-07T01:48:58;100946.81;;;5.57;45.37
59493;BME280;45497;43.996;22.876;2023-04-07T01:51:25;100946.25;;;5.53;45.50
59493;BME280;45497;43.996;22.876;2023-04-07T01:53:51;100956.09;;;5.61;45.59
59493;BME280;45497;43.996;22.876;2023-04-07T01:56:17;100950.97;;;5.60;45.67
59493;BME280;45497;43.996;22.876;2023-04-07T01:58:42;100946.00;;;5.57;46.05
59493;BME280;45497;43.996;22.876;2023-04-07T02:01:08;100951.38;;;5.55;45.54
59493;BME280;45497;43.996;22.876;2023-04-07T02:03:45;100950.38;;;5.46;46.27
59493;BME280;45497;43.996;22.876;2023-04-07T02:06:17;100946.84;;;5.36;46.01
59493;BME280;45497;43.996;22.876;2023-04-07T02:08:46;100947.56;;;5.38;46.43
59493;BME280;45497;43.996;22.876;2023-04-07T02:11:14;100952.66;;;5.61;46.06
59493;BME280;45497;43.996;22.876;2023-04-07T02:13:42;100946.63;;;5.49;46.20
59493;BME280;45497;43.996;22.876;2023-04-07T02:16:09;100947.28;;;5.41;46.23
59493;BME280;45497;43.996;22.876;2023-04-07T02:18:35;100960.00;;;5.36;46.37
59493;BME280;45497;43.996;22.876;2023-04-07T02:21:02;100949.69;;;5.23;46.19
59493;BME280;45497;43.996;22.876;2023-04-07T02:23:28;100957.81;;;5.20;46.80
59493;BME280;45497;43.996;22.876;2023-04-07T02:25:56;100963.16;;;5.30;46.69
59493;BME280;45497;43.996;22.876;2023-04-07T02:28:22;100954.94;;;5.23;46.65
59493;BME280;45497;43.996;22.876;2023-04-07T02:30:47;100955.16;;;5.31;46.97
59493;BME280;45497;43.996;22.876;2023-04-07T02:33:13;100959.94;;;5.26;46.77
59493;BME280;45497;43.996;22.876;2023-04-07T02:35:38;100950.13;;;5.28;46.91
59493;BME280;45497;43.996;22.876;2023-04-07T02:38:04;100951.75;;;5.20;46.80
59493;BME280;45497;43.996;22.876;2023-04-07T02:40:30;100953.28;;;5.22;46.95
59493;BME280;45497;43.996;22.876;2023-04-07T02:42:55;100957.81;;;5.20;47.10
59493;BME280;45497;43.996;22.876;2023-04-07T02:45:21;100956.88;;;5.21;47.39
59493;BME280;45497;43.996;22.876;2023-04-07T02:47:46;100962.13;;;5.21;47.34
59493;BME280;45497;43.996;22.876;2023-04-07T02:50:12;100967.56;;;5.29;47.46
59493;BME280;45497;43.996;22.876;2023-04-07T02:52:37;100968.28;;;5.31;47.55
59493;BME280;45497;43.996;22.876;2023-04-07T02:55:03;100972.41;;;5.24;47.75
59493;BME280;45497;43.996;22.876;2023-04-07T02:57:28;100958.41;;;5.24;47.55
59493;BME280;45497;43.996;22.876;2023-04-07T02:59:54;100968.66;;;5.27;47.94
59493;BME280;45497;43.996;22.876;2023-04-07T03:02:22;100959.94;;;5.26;48.18
59493;BME280;45497;43.996;22.876;2023-04-07T03:04:50;100965.78;;;5.30;47.96
59493;BME280;45497;43.996;22.876;2023-04-07T03:07:15;100971.53;;;5.45;47.39
59493;BME280;45497;43.996;22.876;2023-04-07T03:09:40;100977.38;;;5.48;47.81
59493;BME280;45497;43.996;22.876;2023-04-07T03:12:06;100979.03;;;5.49;47.56
59493;BME280;45497;43.996;22.876;2023-04-07T03:14:31;100983.06;;;5.53;47.52
59493;BME280;45497;43.996;22.876;2023-04-07T03:16:57;100979.28;;;5.46;48.05
59493;BME280;45497;43.996;22.876;2023-04-07T03:19:22;100977.56;;;5.57;47.34
59493;BME280;45497;43.996;22.876;2023-04-07T03:21:48;100971.50;;;5.66;47.65
59493;BME280;45497;43.996;22.876;2023-04-07T03:24:13;100982.75;;;5.78;47.23
59493;BME280;45497;43.996;22.876;2023-04-07T03:26:39;100969.31;;;5.71;47.50
59493;BME280;45497;43.996;22.876;2023-04-07T03:29:04;100976.06;;;5.64;47.60
59493;BME280;45497;43.996;22.876;2023-04-07T03:31:30;100974.56;;;5.71;47.78
59493;BME280;45497;43.996;22.876;2023-04-07T03:33:55;100980.13;;;5.78;47.72
59493;BME280;45497;43.996;22.876;2023-04-07T03:36:21;100979.47;;;5.85;47.29
59493;BME280;45497;43.996;22.876;2023-04-07T03:38:46;100978.34;;;5.78;47.53
59493;BME280;45497;43.996;22.876;2023-04-07T03:41:12;100977.81;;;5.84;47.50
59493;BME280;45497;43.996;22.876;2023-04-07T03:43:38;100977.00;;;5.93;47.42
59493;BME280;45497;43.996;22.876;2023-04-07T03:46:03;100984.06;;;5.93;47.51
59493;BME280;45497;43.996;22.876;2023-04-07T03:48:29;100978.28;;;5.99;47.29
59493;BME280;45497;43.996;22.876;2023-04-07T03:50:55;100979.44;;;6.06;47.08
59493;BME280;45497;43.996;22.876;2023-04-07T03:53:20;100976.22;;;6.03;47.44
59493;BME280;45497;43.996;22.876;2023-04-07T03:55:46;100979.16;;;6.09;47.29
59493;BME280;45497;43.996;22.876;2023-04-07T03:58:12;100980.84;;;6.20;46.95
59493;BME280;45497;43.996;22.876;2023-04-07T04:00:38;100979.47;;;6.26;46.70
59493;BME280;45497;43.996;22.876;2023-04-07T04:03:04;100986.69;;;6.34;46.94
59493;BME280;45497;43.996;22.876;2023-04-07T04:05:29;100983.50;;;6.30;46.94
59493;BME280;45497;43.996;22.876;2023-04-07T04:07:55;100988.78;;;6.30;47.00
59493;BME280;45497;43.996;22.876;2023-04-07T04:10:21;100992.69;;;6.36;46.88
59493;BME280;45497;43.996;22.876;2023-04-07T04:12:47;100992.25;;;6.30;46.86
59493;BME280;45497;43.996;22.876;2023-04-07T04:15:13;100998.34;;;6.41;46.36
59493;BME280;45497;43.996;22.876;2023-04-07T04:17:38;101008.78;;;6.52;46.31
59493;BME280;45497;43.996;22.876;2023-04-07T04:20:04;101008.09;;;6.60;46.79
59493;BME280;45497;43.996;22.876;2023-04-07T04:22:30;100996.16;;;6.46;46.52
59493;BME280;45497;43.996;22.876;2023-04-07T04:24:56;101012.63;;;6.48;46.52
59493;BME280;45497;43.996;22.876;2023-04-07T04:27:21;101008.91;;;6.50;46.71
59493;BME280;45497;43.996;22.876;2023-04-07T04:29:47;101011.69;;;6.59;46.12
59493;BME280;45497;43.996;22.876;2023-04-07T04:32:13;101023.19;;;6.48;46.44
59493;BME280;45497;43.996;22.876;2023-04-07T04:34:38;101026.38;;;6.51;46.48
59493;BME280;45497;43.996;22.876;2023-04-07T04:37:06;101021.97;;;6.52;46.36
59493;BME280;45497;43.996;22.876;2023-04-07T04:39:32;101024.84;;;6.49;46.40
59493;BME280;45497;43.996;22.876;2023-04-07T04:41:58;101030.81;;;6.51;46.84
59493;BME280;45497;43.996;22.876;2023-04-07T04:44:23;101044.13;;;6.49;46.83
59493;BME280;45497;43.996;22.876;2023-04-07T04:46:49;101044.13;;;6.49;46.78
59493;BME280;45497;43.996;22.876;2023-04-07T04:49:15;101045.38;;;6.55;47.04
59493;BME280;45497;43.996;22.876;2023-04-07T04:51:43;101038.72;;;6.51;46.95
59493;BME280;45497;43.996;22.876;2023-04-07T04:54:08;101046.63;;;6.51;47.39
59493;BME280;45497;43.996;22.876;2023-04-07T04:56:34;101045.66;;;6.52;47.50
59493;BME280;45497;43.996;22.876;2023-04-07T04:58:59;101040.97;;;6.65;47.11
59493;BME280;45497;43.996;22.876;2023-04-07T05:01:25;101053.13;;;6.57;47.33
59493;BME280;45497;43.996;22.876;2023-04-07T05:03:50;101047.56;;;6.40;47.70
59493;BME280;45497;43.996;22.876;2023-04-07T05:06:16;101056.88;;;6.54;47.50
59493;BME280;45497;43.996;22.876;2023-04-07T05:08:41;101057.88;;;6.63;47.57
59493;BME280;45497;43.996;22.876;2023-04-07T05:11:08;101065.06;;;6.61;47.71
59493;BME280;45497;43.996;22.876;2023-04-07T05:13:33;101075.91;;;6.67;48.14
59493;BME280;45497;43.996;22.876;2023-04-07T05:15:58;101063.03;;;6.74;48.13
59493;BME280;45497;43.996;22.876;2023-04-07T05:18:24;101070.09;;;6.74;48.53
59493;BME280;45497;43.996;22.876;2023-04-07T05:20:50;101075.59;;;6.61;49.13
59493;BME280;45497;43.996;22.876;2023-04-07T05:23:15;101073.50;;;6.45;49.07
59493;BME280;45497;43.996;22.876;2023-04-07T05:25:41;101088.06;;;6.59;49.20
59493;BME280;45497;43.996;22.876;2023-04-07T05:28:06;101072.81;;;6.53;49.31
59493;BME280;45497;43.996;22.876;2023-04-07T05:30:32;101082.69;;;6.60;49.62
59493;BME280;45497;43.996;22.876;2023-04-07T05:32:58;101092.53;;;6.58;50.12
59493;BME280;45497;43.996;22.876;2023-04-07T05:35:23;101085.56;;;6.47;50.24
59493;BME280;45497;43.996;22.876;2023-04-07T05:37:48;101084.75;;;6.57;50.33
59493;BME280;45497;43.996;22.876;2023-04-07T05:40:14;101087.81;;;6.62;50.27
59493;BME280;45497;43.996;22.876;2023-04-07T05:42:40;101098.41;;;6.91;49.98
59493;BME280;45497;43.996;22.876;2023-04-07T05:45:07;101097.88;;;6.97;49.84
59493;BME280;45497;43.996;22.876;2023-04-07T05:47:32;101092.13;;;6.73;50.32
59493;BME280;45497;43.996;22.876;2023-04-07T05:49:58;101102.16;;;6.98;49.95
59493;BME280;45497;43.996;22.876;2023-04-07T05:52:23;101103.28;;;7.05;49.85
59493;BME280;45497;43.996;22.876;2023-04-07T05:54:49;101101.88;;;7.11;49.80
59493;BME280;45497;43.996;22.876;2023-04-07T05:57:14;101110.66;;;7.21;49.55
59493;BME280;45497;43.996;22.876;2023-04-07T05:59:40;101099.81;;;7.05;50.02
59493;BME280;45497;43.996;22.876;2023-04-07T06:02:06;101103.97;;;6.98;50.59
59493;BME280;45497;43.996;22.876;2023-04-07T06:04:31;101100.22;;;7.00;50.26
59493;BME280;45497;43.996;22.876;2023-04-07T06:07:02;101114.94;;;7.13;50.35
59493;BME280;45497;43.996;22.876;2023-04-07T06:09:28;101112.88;;;7.26;49.87
59493;BME280;45497;43.996;22.876;2023-04-07T06:11:53;101111.47;;;7.22;50.12
59493;BME280;45497;43.996;22.876;2023-04-07T06:14:19;101109.53;;;7.34;49.93
59493;BME280;45497;43.996;22.876;2023-04-07T06:16:45;101118.44;;;7.23;49.66
59493;BME280;45497;43.996;22.876;2023-04-07T06:19:10;101098.72;;;7.17;50.23
59493;BME280;45497;43.996;22.876;2023-04-07T06:21:36;101106.50;;;7.38;49.74
59493;BME280;45497;43.996;22.876;2023-04-07T06:24:01;101100.78;;;7.43;49.51
59493;BME280;45497;43.996;22.876;2023-04-07T06:26:27;101110.50;;;7.52;49.26
59493;BME280;45497;43.996;22.876;2023-04-07T06:28:53;101108.84;;;7.71;48.81
59493;BME280;45497;43.996;22.876;2023-04-07T06:31:18;101116.31;;;7.85;48.57
59493;BME280;45497;43.996;22.876;2023-04-07T06:33:44;101115.44;;;7.84;48.39
59493;BME280;45497;43.996;22.876;2023-04-07T06:36:10;101108.22;;;7.96;48.42
59493;BME280;45497;43.996;22.876;2023-04-07T06:38:36;101113.91;;;8.01;48.20
59493;BME280;45497;43.996;22.876;2023-04-07T06:41:01;101110.06;;;7.66;48.60
59493;BME280;45497;43.996;22.876;2023-04-07T06:43:27;101122.19;;;7.50;49.03
59493;BME280;45497;43.996;22.876;2023-04-07T06:45:52;101118.28;;;7.54;49.10
59493;BME280;45497;43.996;22.876;2023-04-07T06:48:18;101121.19;;;7.60;48.94
59493;BME280;45497;43.996;22.876;2023-04-07T06:50:50;101124.81;;;7.69;49.46
59493;BME280;45497;43.996;22.876;2023-04-07T06:53:16;101118.63;;;7.88;48.89
59493;BME280;45497;43.996;22.876;2023-04-07T06:55:41;101118.72;;;8.06;48.18
59493;BME280;45497;43.996;22.876;2023-04-07T06:58:07;101126.88;;;8.22;48.54
59493;BME280;45497;43.996;22.876;2023-04-07T07:00:32;101126.88;;;8.22;48.26
59493;BME280;45497;43.996;22.876;2023-04-07T07:02:58;101127.56;;;8.24;48.20
59493;BME280;45497;43.996;22.876;2023-04-07T07:05:24;101137.56;;;8.31;48.06
59493;BME280;45497;43.996;22.876;2023-04-07T07:07:49;101131.47;;;8.30;48.22
59493;BME280;45497;43.996;22.876;2023-04-07T07:10:15;101137.94;;;8.46;48.14
59493;BME280;45497;43.996;22.876;2023-04-07T07:12:41;101137.41;;;8.42;47.45
59493;BME280;45497;43.996;22.876;2023-04-07T07:15:07;101147.00;;;8.43;48.37
59493;BME280;45497;43.996;22.876;2023-04-07T07:17:33;101146.78;;;8.17;48.50
59493;BME280;45497;43.996;22.876;2023-04-07T07:19:58;101140.47;;;8.37;49.05
59493;BME280;45497;43.996;22.876;2023-04-07T07:22:24;101140.75;;;8.72;50.83
59493;BME280;45497;43.996;22.876;2023-04-07T07:24:49;101145.44;;;8.78;48.91
59493;BME280;45497;43.996;22.876;2023-04-07T07:27:15;101157.88;;;8.95;50.44
59493;BME280;45497;43.996;22.876;2023-04-07T07:29:40;101160.16;;;9.08;49.78
59493;BME280;45497;43.996;22.876;2023-04-07T07:32:06;101144.88;;;8.84;48.27
59493;BME280;45497;43.996;22.876;2023-04-07T07:34:31;101159.63;;;9.05;48.39
59493;BME280;45497;43.996;22.876;2023-04-07T07:36:57;101155.66;;;9.18;49.36
59493;BME280;45497;43.996;22.876;2023-04-07T07:39:24;101155.72;;;9.27;48.52
59493;BME280;45497;43.996;22.876;2023-04-07T07:41:49;101167.13;;;9.27;48.49
59493;BME280;45497;43.996;22.876;2023-04-07T07:44:15;101162.91;;;9.16;47.99
59493;BME280;45497;43.996;22.876;2023-04-07T07:46:41;101163.41;;;9.02;48.11
59493;BME280;45497;43.996;22.876;2023-04-07T07:49:06;101167.09;;;8.91;48.36
59493;BME280;45497;43.996;22.876;2023-04-07T07:51:32;101166.28;;;9.09;48.32
59493;BME280;45497;43.996;22.876;2023-04-07T07:53:57;101163.69;;;8.99;48.32
59493;BME280;45497;43.996;22.876;2023-04-07T07:56:23;101169.91;;;9.08;47.66
59493;BME280;45497;43.996;22.876;2023-04-07T07:58:48;101161.47;;;9.22;47.80
59493;BME280;45497;43.996;22.876;2023-04-07T08:01:14;101176.09;;;8.98;47.37
59493;BME280;45497;43.996;22.876;2023-04-07T08:03:39;101173.78;;;8.86;48.14
59493;BME280;45497;43.996;22.876;2023-04-07T08:06:05;101180.34;;;9.09;47.90
59493;BME280;45497;43.996;22.876;2023-04-07T08:08:31;101178.41;;;9.29;47.83
59493;BME280;45497;43.996;22.876;2023-04-07T08:10:56;101178.72;;;9.44;46.99
59493;BME280;45497;43.996;22.876;2023-04-07T08:13:23;101168.47;;;9.13;46.74
59493;BME280;45497;43.996;22.876;2023-04-07T08:15:48;101180.41;;;9.17;46.77
59493;BME280;45497;43.996;22.876;2023-04-07T08:18:14;101181.34;;;9.26;47.13
59493;BME280;45497;43.996;22.876;2023-04-07T08:20:40;101183.75;;;9.37;46.55
59493;BME280;45497;43.996;22.876;2023-04-07T08:23:05;101187.03;;;9.49;46.32
59493;BME280;45497;43.996;22.876;2023-04-07T08:25:31;101189.88;;;9.56;46.27
59493;BME280;45497;43.996;22.876;2023-04-07T08:27:56;101185.34;;;9.66;46.79
59493;BME280;45497;43.996;22.876;2023-04-07T08:30:22;101188.53;;;9.70;47.18
59493;BME280;45497;43.996;22.876;2023-04-07T08:32:48;101193.28;;;9.66;46.83
59493;BME280;45497;43.996;22.876;2023-04-07T08:35:13;101195.16;;;9.74;46.90
59493;BME280;45497;43.996;22.876;2023-04-07T08:37:39;101196.41;;;9.62;46.82
59493;BME280;45497;43.996;22.876;2023-04-07T08:40:06;101195.78;;;9.68;47.34
59493;BME280;45497;43.996;22.876;2023-04-07T08:42:33;101210.63;;;9.61;46.94
59493;BME280;45497;43.996;22.876;2023-04-07T08:45:04;101186.66;;;9.44;47.33
59493;BME280;45497;43.996;22.876;2023-04-07T08:47:31;101193.91;;;8.96;48.14
59493;BME280;45497;43.996;22.876;2023-04-07T08:50:02;101199.50;;;8.93;48.52
59493;BME280;45497;43.996;22.876;2023-04-07T08:52:44;101204.53;;;8.87;49.48
59493;BME280;45497;43.996;22.876;2023-04-07T08:55:11;101196.50;;;9.06;49.27
59493;BME280;45497;43.996;22.876;2023-04-07T08:57:37;101199.59;;;9.02;49.41
59493;BME280;45497;43.996;22.876;2023-04-07T09:00:03;101209.22;;;8.93;49.22
59493;BME280;45497;43.996;22.876;2023-04-07T09:02:33;101211.22;;;9.09;49.09
59493;BME280;45497;43.996;22.876;2023-04-07T09:05:00;101210.25;;;9.10;49.52
59493;BME280;45497;43.996;22.876;2023-04-07T09:07:27;101209.25;;;9.38;49.56
59493;BME280;45497;43.996;22.876;2023-04-07T09:09:54;101214.31;;;9.32;49.22
59493;BME280;45497;43.996;22.876;2023-04-07T09:12:20;101219.31;;;9.35;48.82
59493;BME280;45497;43.996;22.876;2023-04-07T09:14:45;101229.34;;;9.31;48.56
59493;BME280;45497;43.996;22.876;2023-04-07T09:17:11;101217.34;;;9.37;48.62
59493;BME280;45497;43.996;22.876;2023-04-07T09:19:36;101221.34;;;9.77;48.78
59493;BME280;45497;43.996;22.876;2023-04-07T09:22:02;101221.88;;;9.81;48.69
59493;BME280;45497;43.996;22.876;2023-04-07T09:24:28;101227.69;;;9.66;48.52
59493;BME280;45497;43.996;22.876;2023-04-07T09:29:39;101220.31;;;10.14;48.12
59493;BME280;45497;43.996;22.876;2023-04-07T09:32:05;101220.47;;;10.12;47.72
59493;BME280;45497;43.996;22.876;2023-04-07T09:34:33;101218.50;;;10.14;47.34
59493;BME280;45497;43.996;22.876;2023-04-07T09:36:58;101219.97;;;10.09;47.35
59493;BME280;45497;43.996;22.876;2023-04-07T09:39:24;101219.31;;;9.89;47.83
59493;BME280;45497;43.996;22.876;2023-04-07T09:41:50;101226.88;;;9.66;47.80
59493;BME280;45497;43.996;22.876;2023-04-07T09:44:23;101222.47;;;9.92;47.51
59493;BME280;45497;43.996;22.876;2023-04-07T09:46:57;101216.25;;;10.02;47.36
59493;BME280;45497;43.996;22.876;2023-04-07T09:49:26;101216.78;;;10.05;47.51
59493;BME280;45497;43.996;22.876;2023-04-07T09:51:56;101221.00;;;10.16;47.38
59493;BME280;45497;43.996;22.876;2023-04-07T09:54:35;101213.06;;;10.16;47.08
59493;BME280;45497;43.996;22.876;2023-04-07T09:57:06;101210.09;;;10.37;47.00
59493;BME280;45497;43.996;22.876;2023-04-07T09:59:33;101223.53;;;10.44;46.09
59493;BME280;45497;43.996;22.876;2023-04-07T10:02:00;101228.81;;;10.44;46.83
59493;BME280;45497;43.996;22.876;2023-04-07T10:04:26;101214.84;;;10.60;46.05
59493;BME280;45497;43.996;22.876;2023-04-07T10:06:53;101219.59;;;10.48;45.00
59493;BME280;45497;43.996;22.876;2023-04-07T10:09:22;101219.22;;;10.43;45.11
59493;BME280;45497;43.996;22.876;2023-04-07T10:11:49;101216.81;;;10.58;45.29
59493;BME280;45497;43.996;22.876;2023-04-07T10:14:17;101223.16;;;10.65;44.75
59493;BME280;45497;43.996;22.876;2023-04-07T10:16:43;101230.06;;;10.58;44.72
59493;BME280;45497;43.996;22.876;2023-04-07T10:19:09;101223.06;;;10.48;44.68
59493;BME280;45497;43.996;22.876;2023-04-07T10:21:38;101222.34;;;10.64;45.47
59493;BME280;45497;43.996;22.876;2023-04-07T10:24:08;101224.78;;;10.58;44.47
59493;BME280;45497;43.996;22.876;2023-04-07T10:26:45;101225.72;;;10.48;44.61
59493;BME280;45497;43.996;22.876;2023-04-07T10:29:14;101229.50;;;10.72;44.53
59493;BME280;45497;43.996;22.876;2023-04-07T10:31:40;101225.59;;;10.58;43.95
59493;BME280;45497;43.996;22.876;2023-04-07T10:34:05;101232.56;;;10.59;44.69
59493;BME280;45497;43.996;22.876;2023-04-07T10:36:31;101229.78;;;10.69;44.48
59493;BME280;45497;43.996;22.876;2023-04-07T10:44:08;101231.44;;;10.36;44.54
59493;BME280;45497;43.996;22.876;2023-04-07T10:49:15;101242.75;;;10.28;43.87
59493;BME280;45497;43.996;22.876;2023-04-07T10:51:43;101239.38;;;10.36;44.81
59493;BME280;45497;43.996;22.876;2023-04-07T10:54:15;101242.41;;;10.41;43.88
59493;BME280;45497;43.996;22.876;2023-04-07T11:00:13;101238.25;;;10.20;43.69
59493;BME280;45497;43.996;22.876;2023-04-07T11:04:50;101249.84;;;10.19;44.15
59493;BME280;45497;43.996;22.876;2023-04-07T11:07:15;101250.03;;;10.44;44.47
59493;BME280;45497;43.996;22.876;2023-04-07T11:09:42;101251.47;;;10.38;44.26
59493;BME280;45497;43.996;22.876;2023-04-07T11:12:08;101249.75;;;10.29;44.33
59493;BME280;45497;43.996;22.876;2023-04-07T11:14:46;101262.16;;;10.28;45.23
59493;BME280;45497;43.996;22.876;2023-04-07T11:17:13;101250.19;;;10.42;44.71
59493;BME280;45497;43.996;22.876;2023-04-07T11:19:52;101256.50;;;10.23;44.82
59493;BME280;45497;43.996;22.876;2023-04-07T11:22:18;101245.41;;;10.28;44.45
59493;BME280;45497;43.996;22.876;2023-04-07T11:24:45;101248.59;;;9.87;44.21
59493;BME280;45497;43.996;22.876;2023-04-07T11:27:14;101257.34;;;9.70;44.95
59493;BME280;45497;43.996;22.876;2023-04-07T11:29:41;101258.34;;;9.87;45.13
59493;BME280;45497;43.996;22.876;2023-04-07T11:32:07;101265.22;;;9.98;44.65
59493;BME280;45497;43.996;22.876;2023-04-07T11:34:34;101273.22;;;10.06;44.79
59493;BME280;45497;43.996;22.876;2023-04-07T11:37:23;101260.63;;;10.00;44.88
59493;BME280;45497;43.996;22.876;2023-04-07T11:39:56;101259.84;;;9.71;45.09
59493;BME280;45497;43.996;22.876;2023-04-07T11:44:57;101259.00;;;10.07;45.64
59493;BME280;45497;43.996;22.876;2023-04-07T11:47:35;101261.22;;;9.75;44.66
59493;BME280;45497;43.996;22.876;2023-04-07T11:50:02;101268.06;;;9.50;44.22
59493;BME280;45497;43.996;22.876;2023-04-07T11:52:27;101272.69;;;9.48;44.64
59493;BME280;45497;43.996;22.876;2023-04-07T11:54:53;101266.06;;;9.34;43.73
59493;BME280;45497;43.996;22.876;2023-04-07T11:57:28;101264.38;;;9.15;44.65
59493;BME280;45497;43.996;22.876;2023-04-07T12:00:10;101280.09;;;9.17;44.41
59493;BME280;45497;43.996;22.876;2023-04-07T12:02:36;101269.94;;;8.85;44.73
59493;BME280;45497;43.996;22.876;2023-04-07T12:05:02;101274.41;;;9.12;44.75
59493;BME280;45497;43.996;22.876;2023-04-07T12:07:28;101283.81;;;8.96;44.72
59493;BME280;45497;43.996;22.876;2023-04-07T12:09:54;101269.47;;;8.99;44.69
59493;BME280;45497;43.996;22.876;2023-04-07T12:12:29;101270.38;;;8.80;44.72
59493;BME280;45497;43.996;22.876;2023-04-07T12:14:57;101274.84;;;9.07;44.94
59493;BME280;45497;43.996;22.876;2023-04-07T12:17:24;101292.28;;;9.00;44.46
59493;BME280;45497;43.996;22.876;2023-04-07T12:19:50;101276.53;;;9.08;44.92
59493;BME280;45497;43.996;22.876;2023-04-07T12:22:16;101283.81;;;8.96;44.30
59493;BME280;45497;43.996;22.876;2023-04-07T12:24:42;101290.09;;;8.95;44.72
59493;BME280;45497;43.996;22.876;2023-04-07T12:27:07;101292.13;;;9.02;44.53
59493;BME280;45497;43.996;22.876;2023-04-07T12:29:34;101283.03;;;8.86;44.70
59493;BME280;45497;43.996;22.876;2023-04-07T12:32:00;101289.56;;;9.19;45.16
59493;BME280;45497;43.996;22.876;2023-04-07T12:34:26;101291.38;;;9.19;44.52
59493;BME280;45497;43.996;22.876;2023-04-07T12:36:52;101283.69;;;9.26;44.56
59493;BME280;45497;43.996;22.876;2023-04-07T12:39:18;101285.38;;;9.45;43.93
59493;BME280;45497;43.996;22.876;2023-04-07T12:41:44;101296.09;;;9.43;44.15
59493;BME280;45497;43.996;22.876;2023-04-07T12:44:14;101297.88;;;9.25;44.41
59493;BME280;45497;43.996;22.876;2023-04-07T12:46:40;101290.72;;;9.07;44.74
59493;BME280;45497;43.996;22.876;2023-04-07T12:49:07;101298.22;;;8.84;44.97
59493;BME280;45497;43.996;22.876;2023-04-07T12:51:32;101288.25;;;9.06;45.23
59493;BME280;45497;43.996;22.876;2023-04-07T12:53:58;101288.47;;;9.12;45.16
59493;BME280;45497;43.996;22.876;2023-04-07T12:56:25;101288.97;;;9.26;45.63
59493;BME280;45497;43.996;22.876;2023-04-07T12:58:52;101297.47;;;9.29;45.08
59493;BME280;45497;43.996;22.876;2023-04-07T13:01:17;101294.00;;;8.91;46.38
59493;BME280;45497;43.996;22.876;2023-04-07T13:03:43;101306.41;;;8.81;46.27
59493;BME280;45497;43.996;22.876;2023-04-07T13:06:09;101300.81;;;8.94;46.38
59493;BME280;45497;43.996;22.876;2023-04-07T13:08:35;101300.41;;;8.89;46.58